• Join FlightAware (Why Join?)
  • Login
  • US Flag 
09:58AM EDT


 

Airport Tracker/Info


-or-


 

Live Flight TrackerFlight Track Log ✈ UAL1283 ✈ 21-Jun-2013 ✈ KSFO - KIAD

Flight Track Log - Related Links

Times and Time Zones

All times are in EDT time to prevent confusion due to time zone crossing. See the UAL1283 flight status page for this flight to view local times or setup timezone preferences in your user account.

Time Position Orientation Groundspeed Altitude Reporting Facility
EDT Latitude Longitude Course Direction KTS MPH feet Rate Location/Type
09:54PM 37.6242 -122.4020 117° Southeast  Level FlightAware Approximate
09:55PM 37.6978 -122.2856 38° Northeast  Level FlightAware Approximate
09:56PM 37.8023 -122.1811 38° Northeast  Level FlightAware Approximate
09:57PM 37.9014 -122.0684 43° Northeast  Level FlightAware Approximate
09:58PM 38.0094 -121.9716 45° Northeast  Level FlightAware Approximate
09:59PM 38.1134 -121.8699 38° Northeast  Level FlightAware Approximate
10:00PM 38.2182 -121.7652 38° Northeast  Level FlightAware Approximate
10:01PM 38.3230 -121.6603 38° Northeast  Level FlightAware Approximate
10:02PM 38.4279 -121.5555 38° Northeast  Level FlightAware Approximate
10:03PM 38.5067 -121.4190 52° Northeast  Level FlightAware Approximate
10:04PM 38.5895 -121.2854 52° Northeast  Level FlightAware Approximate
10:05PM 38.6721 -121.1516 52° Northeast  Level FlightAware Approximate
10:06PM 38.7507 -121.0138 54° Northeast  Level FlightAware Approximate
10:07PM 38.8286 -120.8751 54° Northeast  Level FlightAware Approximate
10:08PM 38.9055 -120.7353 55° Northeast  Level FlightAware Approximate
10:09PM 38.9821 -120.5951 55° Northeast  Level FlightAware Approximate
10:10PM 39.0586 -120.4546 55° Northeast  Level FlightAware Approximate
10:11PM 39.1349 -120.3139 53° Northeast  Level FlightAware Approximate
10:12PM 39.2147 -120.1763 53° Northeast  Level FlightAware Approximate
10:13PM 39.2944 -120.0383 53° Northeast  Level FlightAware Approximate
10:14PM 39.3738 -119.9000 53° Northeast  Level FlightAware Approximate
10:15PM 39.4532 -119.7614 53° Northeast  Level FlightAware Approximate
10:16PM 39.5322 -119.6224 54° Northeast  Level FlightAware Approximate
10:17PM 39.6107 -119.4827 54° Northeast  Level FlightAware Approximate
10:18PM 39.6890 -119.3427 54° Northeast  Level FlightAware Approximate
10:19PM 39.7671 -119.2023 54° Northeast  Level FlightAware Approximate
10:20PM 39.8451 -119.0617 54° Northeast  Level FlightAware Approximate
10:21PM 39.9229 -118.9207 54° Northeast  Level FlightAware Approximate
10:22PM 40.0005 -118.7794 54° Northeast  Level FlightAware Approximate
10:23PM 40.0793 -118.6351 54° Northeast  Level FlightAware Approximate
10:24PM 40.1415 -118.4791 70° East  Level FlightAware Approximate
10:25PM 40.1885 -118.3126 70° East  Level FlightAware Approximate
10:26PM 40.2353 -118.1458 70° East  Level FlightAware Approximate
10:27PM 40.2817 -117.9786 70° East  Level FlightAware Approximate
10:28PM 40.3274 -117.8111 70° East  Level FlightAware Approximate
10:29PM 40.3730 -117.6434 70° East  Level FlightAware Approximate
10:30PM 40.4182 -117.4754 70° East  Level FlightAware Approximate
10:31PM 40.4633 -117.3072 71° East  Level FlightAware Approximate
10:32PM 40.5081 -117.1388 71° East  Level FlightAware Approximate
10:33PM 40.5526 -116.9701 71° East  Level FlightAware Approximate
10:34PM 40.6092 -116.8082 63° Northeast  Level FlightAware Approximate
10:35PM 40.6712 -116.6491 63° Northeast  Level FlightAware Approximate
10:36PM 40.7331 -116.4898 63° Northeast  Level FlightAware Approximate
10:37PM 40.7947 -116.3301 63° Northeast  Level FlightAware Approximate
10:38PM 40.8560 -116.1702 63° Northeast  Level FlightAware Approximate
10:39PM 40.9172 -116.0100 63° Northeast  Level FlightAware Approximate
10:40PM 40.9781 -115.8495 63° Northeast  Level FlightAware Approximate
10:41PM 41.0389 -115.6886 63° Northeast  Level FlightAware Approximate
10:42PM 41.0994 -115.5275 63° Northeast  Level FlightAware Approximate
10:43PM 41.1596 -115.3661 64° Northeast  Level FlightAware Approximate
10:44PM 41.2197 -115.2044 64° Northeast  Level FlightAware Approximate
10:45PM 41.2795 -115.0424 64° Northeast  Level FlightAware Approximate
10:46PM 41.3391 -114.8801 64° Northeast  Level FlightAware Approximate
10:47PM 41.3984 -114.7175 64° Northeast  Level FlightAware Approximate
10:48PM 41.4576 -114.5546 64° Northeast  Level FlightAware Approximate
10:49PM 41.5163 -114.3913 64° Northeast  Level FlightAware Approximate
10:50PM 41.5745 -114.2275 65° Northeast  Level FlightAware Approximate
10:51PM 41.6326 -114.0635 65° Northeast  Level FlightAware Approximate
10:52PM 41.6914 -113.8998 64° Northeast  Level FlightAware Approximate
10:53PM 41.7514 -113.7367 64° Northeast  Level FlightAware Approximate
10:54PM 41.8112 -113.5733 64° Northeast  Level FlightAware Approximate
10:55PM 41.8677 -113.4079 68° East  Level FlightAware Approximate
10:56PM 41.9203 -113.2399 66° East  Level FlightAware Approximate
10:57PM 41.9763 -113.0737 66° East  Level FlightAware Approximate
10:58PM 42.0320 -112.9072 66° East  Level FlightAware Approximate
10:59PM 42.0875 -112.7404 66° East  Level FlightAware Approximate
11:00PM 42.1428 -112.5733 66° East  Level FlightAware Approximate
11:01PM 42.1976 -112.4058 66° East  Level FlightAware Approximate
11:02PM 42.2515 -112.2377 67° East  Level FlightAware Approximate
11:03PM 42.3053 -112.0692 67° East  Level FlightAware Approximate
11:04PM 42.3598 -111.9012 66° East  Level FlightAware Approximate
11:05PM 42.4144 -111.7329 66° East  Level FlightAware Approximate
11:06PM 42.4687 -111.5645 66° East  Level FlightAware Approximate
11:07PM 42.5228 -111.3957 66° East  Level FlightAware Approximate
11:08PM 42.5767 -111.2266 67° East  Level FlightAware Approximate
11:09PM 42.6303 -111.0572 67° East  Level FlightAware Approximate
11:10PM 42.6836 -110.8876 67° East  Level FlightAware Approximate
11:11PM 42.7367 -110.7176 67° East  Level FlightAware Approximate
11:12PM 42.7896 -110.5474 67° East  Level FlightAware Approximate
11:13PM 42.8422 -110.3768 67° East  Level FlightAware Approximate
11:14PM 42.8945 -110.2060 67° East  Level FlightAware Approximate
11:15PM 42.9461 -110.0346 68° East  Level FlightAware Approximate
11:16PM 42.9971 -109.8628 68° East  Level FlightAware Approximate
11:17PM 43.0479 -109.6906 68° East  Level FlightAware Approximate
11:18PM 43.0984 -109.5182 68° East  Level FlightAware Approximate
11:19PM 43.1486 -109.3455 68° East  Level FlightAware Approximate
11:20PM 43.1986 -109.1725 68° East  Level FlightAware Approximate
11:21PM 43.2483 -108.9992 68° East  Level FlightAware Approximate
11:22PM 43.2977 -108.8256 69° East  Level FlightAware Approximate
11:23PM 43.3469 -108.6518 69° East  Level FlightAware Approximate
11:24PM 43.3958 -108.4776 69° East  Level FlightAware Approximate
11:25PM 43.4445 -108.3032 69° East  Level FlightAware Approximate
11:26PM 43.4714 -108.1203 80° East  Level FlightAware Approximate
11:27PM 43.4952 -107.9362 80° East  Level FlightAware Approximate
11:28PM 43.5187 -107.7520 80° East  Level FlightAware Approximate
11:29PM 43.5420 -107.5676 80° East  Level FlightAware Approximate
11:30PM 43.5649 -107.3830 80° East  Level FlightAware Approximate
11:31PM 43.5873 -107.1983 81° East  Level FlightAware Approximate
11:32PM 43.6082 -107.0131 81° East  Level FlightAware Approximate
11:33PM 43.6287 -106.8278 81° East  Level FlightAware Approximate
11:34PM 43.6490 -106.6424 81° East  Level FlightAware Approximate
11:35PM 43.6651 -106.4562 83° East  Level FlightAware Approximate
11:36PM 43.6807 -106.2698 83° East  Level FlightAware Approximate
11:37PM 43.6960 -106.0834 83° East  Level FlightAware Approximate
11:38PM 43.7137 -105.8973 82° East  Level FlightAware Approximate
11:39PM 43.7323 -105.7113 82° East  Level FlightAware Approximate
11:40PM 43.7505 -105.5251 82° East  Level FlightAware Approximate
11:41PM 43.7684 -105.3389 82° East  Level FlightAware Approximate
11:42PM 43.7860 -105.1525 82° East  Level FlightAware Approximate
11:43PM 43.8033 -104.9661 83° East  Level FlightAware Approximate
11:44PM 43.8203 -104.7795 83° East  Level FlightAware Approximate
11:45PM 43.8369 -104.5928 83° East  Level FlightAware Approximate
11:46PM 43.8533 -104.4061 83° East  Level FlightAware Approximate
11:47PM 43.8694 -104.2192 83° East  Level FlightAware Approximate
11:48PM 43.8852 -104.0322 83° East  Level FlightAware Approximate
11:49PM 43.9007 -103.8451 83° East  Level FlightAware Approximate
11:50PM 43.9158 -103.6579 84° East  Level FlightAware Approximate
11:51PM 43.9307 -103.4707 84° East  Level FlightAware Approximate
11:52PM 43.9453 -103.2833 84° East  Level FlightAware Approximate
11:53PM 43.9593 -103.0992 84° East  Level FlightAware Approximate
11:54PM 43.9645 -102.9147 92° East  Level FlightAware Approximate
11:55PM 43.9597 -102.7297 92° East  Level FlightAware Approximate
11:56PM 43.9545 -102.5447 92° East  Level FlightAware Approximate
11:57PM 43.9491 -102.3598 92° East  Level FlightAware Approximate
11:58PM 43.9434 -102.1749 92° East  Level FlightAware Approximate
11:59PM 43.9373 -101.9900 93° East  Level FlightAware Approximate
12:00AM 43.9310 -101.8052 93° East  Level FlightAware Approximate
12:01AM 43.9243 -101.6204 93° East  Level FlightAware Approximate
12:02AM 43.9174 -101.4357 93° East  Level FlightAware Approximate
12:03AM 43.9094 -101.2510 93° East  Level FlightAware Approximate
12:04AM 43.9009 -101.0665 94° East  Level FlightAware Approximate
12:05AM 43.8922 -100.8819 94° East  Level FlightAware Approximate
12:06AM 43.8832 -100.6975 93° East  Level FlightAware Approximate
12:07AM 43.8751 -100.5129 93° East  Level FlightAware Approximate
12:08AM 43.8666 -100.3285 94° East  Level FlightAware Approximate
12:09AM 43.8579 -100.1441 94° East  Level FlightAware Approximate
12:10AM 43.8487 -99.9597 94° East  Level FlightAware Approximate
12:11AM 43.8387 -99.7755 94° East  Level FlightAware Approximate
12:12AM 43.8284 -99.5913 94° East  Level FlightAware Approximate
12:13AM 43.8178 -99.4072 94° East  Level FlightAware Approximate
12:14AM 43.8069 -99.2232 95° East  Level FlightAware Approximate
12:15AM 43.7957 -99.0392 95° East  Level FlightAware Approximate
12:16AM 43.7842 -98.8553 95° East  Level FlightAware Approximate
12:17AM 43.7725 -98.6715 95° East  Level FlightAware Approximate
12:18AM 43.7604 -98.4877 95° East  Level FlightAware Approximate
12:19AM 43.7480 -98.3040 95° East  Level FlightAware Approximate
12:20AM 43.7354 -98.1204 95° East  Level FlightAware Approximate
12:21AM 43.7225 -97.9369 95° East  Level FlightAware Approximate
12:22AM 43.7094 -97.7534 96° East  Level FlightAware Approximate
12:23AM 43.6959 -97.5701 96° East  Level FlightAware Approximate
12:24AM 43.6821 -97.3868 96° East  Level FlightAware Approximate
12:25AM 43.6681 -97.2036 96° East  Level FlightAware Approximate
12:26AM 43.6537 -97.0204 96° East  Level FlightAware Approximate
12:27AM 43.6391 -96.8374 96° East  Level FlightAware Approximate
12:28AM 43.6210 -96.6550 99° East  Level FlightAware Approximate
12:29AM 43.6007 -96.4732 99° East  Level FlightAware Approximate
12:30AM 43.5732 -96.2932 102° East  Level FlightAware Approximate
12:31AM 43.5450 -96.1134 102° East  Level FlightAware Approximate
12:32AM 43.5166 -95.9339 102° East  Level FlightAware Approximate
12:33AM 43.4879 -95.7545 102° East  Level FlightAware Approximate
12:34AM 43.4590 -95.5752 102° East  Level FlightAware Approximate
12:35AM 43.4297 -95.3962 103° East  Level FlightAware Approximate
12:36AM 43.4008 -95.2171 102° East  Level FlightAware Approximate
12:37AM 43.3719 -95.0381 102° East  Level FlightAware Approximate
12:38AM 43.3428 -94.8593 103° East  Level FlightAware Approximate
12:39AM 43.3134 -94.6806 103° East  Level FlightAware Approximate
12:40AM 43.2837 -94.5021 103° East  Level FlightAware Approximate
12:41AM 43.2551 -94.3234 102° East  Level FlightAware Approximate
12:42AM 43.2263 -94.1448 102° East  Level FlightAware Approximate
12:43AM 43.1971 -93.9664 103° East  Level FlightAware Approximate
12:44AM 43.1664 -93.7886 103° East  Level FlightAware Approximate
12:45AM 43.1354 -93.6110 103° East  Level FlightAware Approximate
12:46AM 43.1041 -93.4335 104° East  Level FlightAware Approximate
12:47AM 43.0694 -93.2575 108° East  Level FlightAware Approximate
12:48AM 43.0285 -93.0839 108° East  Level FlightAware Approximate
12:49AM 42.9873 -92.9107 108° East  Level FlightAware Approximate
12:50AM 42.9458 -92.7376 108° East  Level FlightAware Approximate
12:51AM 42.9034 -92.5651 109° East  Level FlightAware Approximate
12:52AM 42.8589 -92.3937 109° East  Level FlightAware Approximate
12:53AM 42.8141 -92.2225 110° East  Level FlightAware Approximate
12:54AM 42.7691 -92.0516 110° East  Level FlightAware Approximate
12:55AM 42.7238 -91.8810 110° East  Level FlightAware Approximate
12:56AM 42.6781 -91.7107 110° East  Level FlightAware Approximate
12:57AM 42.6321 -91.5406 110° East  Level FlightAware Approximate
12:58AM 42.5858 -91.3708 110° East  Level FlightAware Approximate
12:59AM 42.5393 -91.2013 110° East  Level FlightAware Approximate
01:00AM 42.4934 -91.0350 110° East  Level FlightAware Approximate
01:01AM 42.4473 -90.8689 111° Southeast  Level FlightAware Approximate
01:02AM 42.4009 -90.7031 111° Southeast  Level FlightAware Approximate
01:03AM 42.3370 -90.5486 119° Southeast  Level FlightAware Approximate
01:04AM 42.2812 -90.3887 113° Southeast  Level FlightAware Approximate
01:05AM 42.2293 -90.2264 113° Southeast  Level FlightAware Approximate
01:06AM 42.1765 -90.0647 116° Southeast  Level FlightAware Approximate
01:07AM 42.1187 -89.9064 116° Southeast  Level FlightAware Approximate
01:08AM 42.0606 -89.7483 116° Southeast  Level FlightAware Approximate
01:09AM 42.0022 -89.5906 116° Southeast  Level FlightAware Approximate
01:10AM 41.9440 -89.4329 115° Southeast  Level FlightAware Approximate
01:11AM 41.8883 -89.2738 115° Southeast  Level FlightAware Approximate
01:12AM 41.8323 -89.1149 115° Southeast  Level FlightAware Approximate
01:13AM 41.7761 -88.9563 115° Southeast  Level FlightAware Approximate
01:14AM 41.7197 -88.7980 115° Southeast  Level FlightAware Approximate
01:15AM 41.6628 -88.6402 118° Southeast  Level FlightAware Approximate
01:16AM 41.6011 -88.4857 118° Southeast  Level FlightAware Approximate
01:17AM 41.5393 -88.3315 118° Southeast  Level FlightAware Approximate
01:18AM 41.5004 -88.1649 106° East  Level FlightAware Approximate
01:19AM 41.4638 -87.9972 106° East  Level FlightAware Approximate
01:20AM 41.4269 -87.8297 106° East  Level FlightAware Approximate
01:21AM 41.3912 -87.6618 106° East  Level FlightAware Approximate
01:22AM 41.3558 -87.4938 106° East  Level FlightAware Approximate
01:23AM 41.3201 -87.3261 106° East  Level FlightAware Approximate
01:24AM 41.2842 -87.1586 106° East  Level FlightAware Approximate
01:25AM 41.2479 -86.9913 108° East  Level FlightAware Approximate
01:26AM 41.2083 -86.8254 108° East  Level FlightAware Approximate
01:27AM 41.1685 -86.6597 108° East  Level FlightAware Approximate
01:28AM 41.1302 -86.4935 106° East  Level FlightAware Approximate
01:29AM 41.0932 -86.3269 106° East  Level FlightAware Approximate
01:30AM 41.0559 -86.1604 106° East  Level FlightAware Approximate
01:31AM 41.0184 -85.9942 107° East  Level FlightAware Approximate
01:32AM 40.9807 -85.8281 107° East  Level FlightAware Approximate
01:33AM 40.9416 -85.6627 108° East  Level FlightAware Approximate
01:34AM 40.9016 -85.4978 108° East  Level FlightAware Approximate
01:35AM 40.8614 -85.3330 108° East  Level FlightAware Approximate
01:36AM 40.8209 -85.1685 108° East  Level FlightAware Approximate
01:37AM 40.7803 -85.0042 108° East  Level FlightAware Approximate
01:38AM 40.7393 -84.8400 108° East  Level FlightAware Approximate
01:39AM 40.6982 -84.6761 109° East  Level FlightAware Approximate
01:40AM 40.6562 -84.5126 109° East  Level FlightAware Approximate
01:41AM 40.6140 -84.3493 109° East  Level FlightAware Approximate
01:42AM 40.5716 -84.1863 109° East  Level FlightAware Approximate
01:43AM 40.5290 -84.0234 109° East  Level FlightAware Approximate
01:44AM 40.4861 -83.8607 109° East  Level FlightAware Approximate
01:45AM 40.4430 -83.6983 109° East  Level FlightAware Approximate
01:46AM 40.3997 -83.5361 109° East  Level FlightAware Approximate
01:47AM 40.3561 -83.3740 109° East  Level FlightAware Approximate
01:48AM 40.3124 -83.2122 109° East  Level FlightAware Approximate
01:49AM 40.2698 -83.0480 108° East  Level FlightAware Approximate
01:50AM 40.2277 -82.8837 109° East  Level FlightAware Approximate
01:51AM 40.1853 -82.7196 109° East  Level FlightAware Approximate
01:52AM 40.1476 -82.5543 96° East  Level FlightAware Approximate
01:53AM 40.1333 -82.3822 96° East  Level FlightAware Approximate
01:54AM 40.1188 -82.2102 96° East  Level FlightAware Approximate
01:55AM 40.1040 -82.0383 96° East  Level FlightAware Approximate
01:56AM 40.0890 -81.8665 96° East  Level FlightAware Approximate
01:57AM 40.0737 -81.6948 97° East  Level FlightAware Approximate
01:58AM 40.0611 -81.5227 94° East  Level FlightAware Approximate
01:59AM 40.0506 -81.3504 94° East  Level FlightAware Approximate
02:00AM 40.0400 -81.1782 95° East  Level FlightAware Approximate
02:01AM 40.0290 -81.0060 95° East  Level FlightAware Approximate
02:02AM 40.0178 -80.8338 95° East  Level FlightAware Approximate
02:03AM 39.9538 -80.6847 122° Southeast  Level FlightAware Approximate
02:04AM 39.8838 -80.5383 122° Southeast  Level FlightAware Approximate
02:05AM 39.8135 -80.3923 122° Southeast  Level FlightAware Approximate
02:06AM 39.7432 -80.2465 122° Southeast  Level FlightAware Approximate
02:07AM 39.6726 -80.1011 122° Southeast  Level FlightAware Approximate
02:08AM 39.6018 -79.9559 122° Southeast  Level FlightAware Approximate
02:09AM 39.5328 -79.8103 97° East  Level FlightAware Approximate
02:10AM 39.5173 -79.6399 97° East  Level FlightAware Approximate
02:11AM 39.4777 -79.4770 100° East  Level FlightAware Approximate
02:12AM 39.4536 -79.3084 100° East  Level FlightAware Approximate
02:13AM 39.4190 -79.1427 108° East  Level FlightAware Approximate
02:14AM 39.3947 -78.9735 104° East  Level FlightAware Approximate
02:15AM 39.3611 -78.8054 104° East  Level FlightAware Approximate
02:16AM 39.3247 -78.6392 100° East  Level FlightAware Approximate
02:17AM 39.2953 -78.4705 106° East  Level FlightAware Approximate
02:18AM 39.2524 -78.3125 126° Southeast  Level FlightAware Approximate
02:19AM 39.1792 -78.1688 131° Southeast  Level FlightAware Approximate
02:20AM 39.1077 -78.0260 126° Southeast  Level FlightAware Approximate
02:21AM 39.0273 -77.8852 126° Southeast  Level FlightAware Approximate
02:22AM 38.9500 -77.7445 90° East  Level FlightAware Approximate
02:23AM 38.9787 -77.5880 38° Northeast  Level FlightAware Approximate
02:24AM 38.9474 -77.4599 North  Level Estimated
02:25AM 38.9474 -77.4599 180° South  Level Estimated
02:26AM 38.9474 -77.4599 165° South  Level Estimated
02:27AM 38.9474 -77.4599 165° South  Level Estimated
02:28AM 38.9474 -77.4599 165° South  Level Estimated
02:29AM 38.9474 -77.4599 165° South  Level Estimated
02:30AM 38.9474 -77.4599 165° South  Level Estimated